Investors Title Co (ITIC) Latest Bloomsberg Price


Mffais Ranking #822 Overall / #12 Industry
Industry: Mortgage Finance

Number of Companies: 33 (Ranking #2493 Overall/#40 Industry)
Inflow: $ 2,793 (K) (Ranking #2355 Overall/#37 Industry)
Outflow: $ -1,597 (K)
Mffais Flow: $ 1,196 (K) (Ranking #822 Overall/#12 Industry)


Receive a FREE weekly executive review of stocks moving into the top 10, taking the top industy spot or moving up within their industry. Sent directly to your Inbox every Saturday. Sign up today and get last week's review immediately sent to you.

We value and respect your privacy. Please read our Terms and Conditions which states our firm commitment to your privacy. Your email address will not be shared with a third party, nor will it be sold or used for purposes other than subscription for the weekly review.

Owner CPOR Shares Action Qty Chg Invested (K) Total Current Value (K)
Northern Trust Corp 2016-09-30 28,995 Added More 16,791 $ 1,648 $ 2,846
Martingale Asset Management L P 2016-09-30 4,600 New Holding 4,600 $ 451 $ 451
Eagle Global Advisors Llc 2016-09-30 2,660 New Holding 2,660 $ 261 $ 261
Bessemer Group Inc 2016-09-30 1,800 New Holding 1,800 $ 176 $ 176
New York State Common Retirement Fund 2016-09-30 1,497 New Holding 1,497 $ 146 $ 146
Oshaughnessy Asset Management Llc 2016-09-30 2,395 Added More 574 $ 56 $ 235
Blackrock Investment Management Llc 2016-09-30 7,379 Added More 536 $ 52 $ 724
American International Group Inc 2016-09-30 824 Added More 1 $ 0 $ 80
Davenport Co Llc 2016-09-30 3,488 No Change 0 $ 0 $ 342
Markel Corp 2016-09-30 213,300 No Change 0 $ 0 $ 20,937
Nationwide Fund Advisors 2016-09-30 1,213 No Change 0 $ 0 $ 119
Bridgeway Capital Management Inc 2016-09-30 9,012 No Change 0 $ 0 $ 884
Rbf Capital Llc 2016-09-30 4,000 No Change 0 $ 0 $ 392
Whittier Trust Co 2016-09-30 400 No Change 0 $ 0 $ 39
Livingston Group Asset Management Co Operating As Southport 2016-09-30 6,649 No Change 0 $ 0 $ 652
Bb T Securities Llc 2016-09-30 6,742 No Change 0 $ 0 $ 661
Teachers Advisors Inc 2016-09-30 2,328 No Change 0 $ 0 $ 228
Pnc Financial Services Group Inc 2016-09-30 250 No Change 0 $ 0 $ 24
California State Teachers Retirement System 2016-09-30 2,999 No Change 0 $ 0 $ 294
Oppenheimer Co Inc 2016-09-30 5,666 No Change 0 $ 0 $ 556
Baker Ellis Asset Management Llc 2016-09-30 7,141 No Change 0 $ 0 $ 700
Fuller Thaler Asset Management Inc 2016-09-30 200 No Change 0 $ 0 $ 19
Blackrock Japan Co Ltd 2016-09-30 0 Sold All -15 $ -1 $ 0
Blackrock Inc 2016-09-30 279 Sold Some -18 $ -1 $ 27
Acrospire Investment Management Llc 2016-09-30 182 Sold Some -95 $ -9 $ 17
Menta Capital Llc 2016-09-30 9,013 Sold Some -200 $ -19 $ 884
Whittier Trust Co Of Nevada Inc 2016-09-30 6,350 Sold Some -250 $ -24 $ 623
Tower Research Capital Llc Trc 2016-09-30 0 Sold All -318 $ -31 $ 0
Steinberg Global Asset Management 2016-09-30 5,670 Sold Some -980 $ -96 $ 556
Dimensional Fund Advisors Lp 2016-09-30 154,431 Sold Some -1,053 $ -103 $ 15,158
Panagora Asset Management Inc 2016-09-30 0 Sold All -1,332 $ -130 $ 0
Biglari Capital Corp 2016-09-30 60,509 Sold Some -2,004 $ -196 $ 5,939
Orinda Asset Management Llc 2016-09-30 0 Sold All -10,007 $ -982 $ 0